Data for 01/18/2010

Time Sea-Level Adjusted Pressure Absolute Pressure Temperature Relative Humidity Dew Point   
(mb) (inHg) (mb) (inHg) (C) (F) (%) (C) (F)
00:05 1009 29.8 838 24.75 2 35.7 39 -10.5 13.1
00:10 1008 29.77 838 24.75 1.9 35.4 41 -10.1 13.9
00:15 1009 29.8 838 24.75 1.5 34.7 41 -10.4 13.3
00:20 1008 29.77 838 24.75 1 33.9 43 -10.2 13.7
00:25 1009 29.8 838 24.75 0.8 33.5 43 -10.4 13.2
00:30 1009 29.8 838 24.75 0.9 33.7 45 -9.8 14.4
00:35 1009 29.8 838 24.75 0.6 33.1 45 -10 14
00:40 1009 29.8 838 24.75 0.6 33 44 -10.2 13.6
00:45 1009 29.8 838 24.75 1 33.8 43 -10.2 13.6
00:50 1008 29.77 838 24.75 1 33.9 44 -9.9 14.2
00:55 1008 29.77 838 24.75 0.8 33.5 44 -10.1 13.8
01:00 1008 29.77 838 24.75 0.6 33.2 46 -9.7 14.5
01:05 1008 29.77 838 24.75 0.7 33.2 45 -10 14
01:10 1008 29.77 838 24.75 0.9 33.6 44 -10 14.1
01:15 1008 29.77 838 24.75 1.2 34.1 44 -9.9 14.2
01:20 1008 29.77 838 24.75 1.5 34.6 43 -9.9 14.2
01:25 1008 29.77 838 24.75 1.5 34.7 43 -9.8 14.4
01:30 1008 29.77 838 24.75 1.6 34.8 43 -9.8 14.4
01:35 1008 29.77 838 24.75 1.6 34.9 43 -9.7 14.6
01:40 1008 29.77 838 24.75 1.6 35 43 -9.7 14.6
01:45 1008 29.77 838 24.75 1.5 34.7 43 -9.8 14.4
01:50 1008 29.77 838 24.75 1.7 35.1 42 -9.9 14.2
01:55 1008 29.77 838 24.75 1.8 35.3 42 -9.6 14.7
02:00 1008 29.77 838 24.75 1.8 35.2 43 -9.5 14.9
02:05 1008 29.77 838 24.75 1.8 35.2 43 -9.6 14.7
02:10 1008 29.77 838 24.75 1.7 35.1 44 -9.3 15.3
02:15 1008 29.77 838 24.75 1.7 35.1 44 -9.3 15.2
02:20 1008 29.77 838 24.75 1.7 35.1 45 -9.1 15.6
02:25 1008 29.77 838 24.75 1.8 35.3 44 -9.3 15.2
02:30 1008 29.77 838 24.75 2.2 35.9 43 -9.3 15.3
02:35 1008 29.77 837 24.72 2.3 36.1 43 -8.9 16
02:40 1008 29.77 837 24.72 3.4 38.1 41 -8.8 16.1
02:45 1008 29.77 837 24.72 3.9 39 40 -8.5 16.7
02:50 1008 29.77 837 24.72 4.3 39.7 42 -7.6 18.4
02:55 1008 29.77 837 24.72 3.1 37.6 48 -6.8 19.7
03:00 1008 29.77 837 24.72 1.5 34.7 48 -8.4 16.9
03:05 1008 29.77 837 24.72 2.1 35.8 44 -9 15.8
03:10 1008 29.77 837 24.72 2.5 36.6 42 -9 15.8
03:15 1008 29.77 837 24.72 2.6 36.7 43 -8.8 16.1
03:20 1008 29.77 837 24.72 2.6 36.7 43 -8.8 16.1
03:25 1008 29.77 837 24.72 3.2 37.7 39 -9.5 15
03:30 1008 29.77 837 24.72 3.9 39.1 38 -9 15.7
03:35 1008 29.77 837 24.72 4 39.2 40 -8.3 17
03:40 1008 29.77 837 24.72 3.7 38.6 40 -8.6 16.5
03:45 1008 29.77 837 24.72 3.8 38.9 41 -8.3 17.1
03:50 1008 29.77 837 24.72 4.1 39.5 41 -8 17.5
03:55 1008 29.77 837 24.72 4.3 39.7 44 -7 19.3
04:00 1008 29.77 837 24.72 4.1 39.3 44 -7 19.4
04:05 1008 29.77 837 24.72 4.2 39.5 45 -6.8 19.7
04:10 1008 29.77 837 24.72 4.2 39.5 44 -6.9 19.5
04:15 1008 29.77 837 24.72 4.3 39.8 45 -6.7 20
04:20 1008 29.77 837 24.72 4.2 39.5 47 -6.2 20.8
04:25 1008 29.77 837 24.72 3.7 38.6 49 -6 21.1
04:30 1008 29.77 837 24.72 3.6 38.4 49 -6.1 21.1
04:35 1008 29.77 837 24.72 3.4 38.1 51 -5.8 21.5
04:40 1008 29.77 837 24.72 2.8 37.1 52 -6 21.3
04:45 1008 29.77 837 24.72 1.7 35.1 53 -6.8 19.7
04:50 1008 29.77 837 24.72 1.4 34.6 55 -6.7 19.9
04:55 1008 29.77 837 24.72 1.3 34.4 55 -6.7 20
05:00 1008 29.77 837 24.72 1.2 34.2 55 -6.8 19.7
05:05 1008 29.77 837 24.72 1.3 34.3 54 -7 19.5
05:10 1008 29.77 837 24.72 1.4 34.6 54 -7 19.4
05:15 1008 29.77 837 24.72 1.8 35.2 52 -7 19.4
05:20 1008 29.77 837 24.72 1.7 35.1 54 -6.7 19.9
05:25 1008 29.77 837 24.72 1.5 34.7 55 -6.5 20.3
05:30 1008 29.77 837 24.72 1.3 34.4 55 -6.7 20
05:35 1008 29.77 837 24.72 1.5 34.8 54 -6.7 19.9
05:40 1008 29.77 837 24.72 1.7 35.1 54 -6.7 19.9
05:45 1008 29.77 837 24.72 1.8 35.3 52 -6.9 19.5
05:50 1008 29.77 837 24.72 2 35.7 51 -7 19.4
05:55 1008 29.77 837 24.72 2.1 35.8 52 -6.8 19.7
06:00 1008 29.77 837 24.72 1.9 35.5 53 -6.6 20.1
06:05 1008 29.77 837 24.72 2 35.6 52 -6.9 19.5
06:10 1008 29.77 837 24.72 1.9 35.4 53 -6.8 19.8
06:15 1008 29.77 837 24.72 1.8 35.2 52 -7 19.5
06:20 1008 29.77 837 24.72 1.8 35.3 52 -7.1 19.2
06:25 1008 29.77 837 24.72 2.1 35.7 50 -7.2 19
06:30 1008 29.77 837 24.72 2.2 35.9 51 -7.1 19.3
06:35 1008 29.77 837 24.72 2.1 35.8 51 -7 19.4
06:40 1008 29.77 838 24.75 2 35.6 51 -7 19.4
06:45 1008 29.77 838 24.75 2.1 35.7 51 -7 19.4
06:50 1008 29.77 838 24.75 2.1 35.8 51 -7 19.5
06:55 1008 29.77 838 24.75 2.1 35.7 51 -7 19.5
07:00 1008 29.77 837 24.72 2 35.7 52 -6.9 19.6
07:05 1008 29.77 837 24.72 1.9 35.4 53 -6.8 19.8
07:10 1008 29.77 837 24.72 1.5 34.7 55 -6.5 20.2
07:15 1008 29.77 837 24.72 1.2 34.2 55 -6.8 19.8
07:20 1008 29.77 837 24.72 1 33.8 59 -6.2 20.8
07:25 1008 29.77 837 24.72 0.9 33.6 57 -6.8 19.8
07:30 1008 29.77 837 24.72 1.4 34.6 55 -6.7 20
07:35 1008 29.77 837 24.72 1.9 35.4 55 -6.3 20.7
07:40 1008 29.77 837 24.72 2 35.6 52 -6.8 19.7
07:45 1008 29.77 837 24.72 2 35.6 57 -5.7 21.7
07:50 1008 29.77 837 24.72 1.4 34.6 55 -6.7 20
07:55 1008 29.77 837 24.72 1.3 34.3 58 -6.1 21.1
08:00 1008 29.77 837 24.72 0.7 33.2 60 -6.1 21
08:05 1008 29.77 837 24.72 0.3 32.6 60 -6.6 20.2
08:10 1008 29.77 837 24.72 0.5 32.9 59 -6.7 19.9
08:15 1008 29.77 837 24.72 0.8 33.5 58 -6.5 20.2
08:20 1008 29.77 837 24.72 0.7 33.3 58 -6.6 20.2
08:25 1008 29.77 837 24.72 0.6 33 60 -6.3 20.7
08:30 1008 29.77 837 24.72 0 32.1 61 -6.6 20.1
08:35 1008 29.77 837 24.72 0.3 32.5 60 -6.7 19.9
08:40 1008 29.77 837 24.72 0.7 33.3 59 -6.4 20.5
08:45 1008 29.77 837 24.72 1.2 34.2 57 -6.2 20.8
08:50 1008 29.77 837 24.72 0.9 33.6 61 -5.7 21.7
08:55 1008 29.77 837 24.72 -0 31.9 63 -6.2 20.9
09:00 1008 29.77 837 24.72 0 32.1 63 -6.2 20.9
09:05 1008 29.77 838 24.75 0.3 32.5 61 -6.4 20.5
09:10 1008 29.77 838 24.75 1 33.8 57 -6.5 20.2
09:15 1008 29.77 838 24.75 1.3 34.3 57 -6.4 20.6
09:20 1008 29.77 838 24.75 1.4 34.6 57 -6.3 20.7
09:25 1008 29.77 838 24.75 1.3 34.4 57 -6.3 20.6
09:30 1008 29.77 838 24.75 1.4 34.6 57 -6.2 20.8
09:35 1008 29.77 838 24.75 1.5 34.7 56 -6.3 20.7
09:40 1008 29.77 838 24.75 1.7 35.1 56 -6.1 21
09:45 1008 29.77 837 24.72 1.7 35.1 56 -6.1 21
09:50 1008 29.77 837 24.72 1.8 35.2 55 -6.3 20.6
09:55 1008 29.77 837 24.72 2.1 35.7 54 -6.3 20.6
10:00 1008 29.77 837 24.72 2.4 36.3 53 -6.2 20.8
10:05 1008 29.77 837 24.72 2.5 36.5 53 -6.1 20.9
10:10 1008 29.77 837 24.72 2.5 36.6 53 -6 21.3
10:15 1008 29.77 837 24.72 2.6 36.7 53 -6 21.3
10:20 1008 29.77 837 24.72 3.2 37.7 53 -5.6 21.9
10:25 1008 29.77 837 24.72 3.8 38.8 50 -5.6 21.9
10:30 1008 29.77 837 24.72 3.9 39 50 -5.6 21.9
10:35 1008 29.77 837 24.72 4 39.2 49 -5.8 21.5
10:40 1008 29.77 837 24.72 4 39.1 49 -5.8 21.6
10:45 1008 29.77 837 24.72 4.5 40.2 46 -6 21.2
10:50 1008 29.77 837 24.72 4.9 40.8 45 -5.9 21.3
10:55 1008 29.77 837 24.72 5.6 42.1 42 -6.1 20.9
11:00 1008 29.77 837 24.72 5.3 41.5 45 -5.8 21.5
11:05 1008 29.77 837 24.72 5.3 41.6 45 -5.8 21.6
11:10 1008 29.77 837 24.72 5.4 41.8 43 -6.1 21
11:15 1008 29.77 837 24.72 5.5 41.9 43 -6 21.2
11:20 1008 29.77 837 24.72 6.1 43 42 -5.7 21.7
11:25 1008 29.77 837 24.72 6.4 43.5 41 -6 21.2
11:30 1008 29.77 837 24.72 6.6 43.9 40 -5.9 21.4
11:35 1007 29.74 837 24.72 6.5 43.6 43 -5.3 22.5
11:40 1007 29.74 837 24.72 6.5 43.7 41 -5.9 21.3
11:45 1007 29.74 836 24.69 7.2 44.9 39 -5.7 21.7
11:50 1007 29.74 836 24.69 7.3 45.1 40 -5.5 22
11:55 1007 29.74 836 24.69 7.7 45.8 39 -5.4 22.4
12:00 1007 29.74 836 24.69 7 44.6 41 -5.4 22.3
12:05 1007 29.74 836 24.69 6.9 44.5 41 -5.4 22.3
12:10 1007 29.74 836 24.69 7.3 45.1 39 -5.6 21.9
12:15 1007 29.74 836 24.69 6.7 44 41 -5.5 22.1
12:20 1007 29.74 836 24.69 6.9 44.3 40 -5.7 21.8
12:25 1007 29.74 836 24.69 7.4 45.3 37 -6.4 20.5
12:30 1007 29.74 836 24.69 8.2 46.8 36 -5.8 21.6
12:35 1007 29.74 836 24.69 7.3 45.1 39 -5.7 21.8
12:40 1007 29.74 836 24.69 7.8 46.1 38 -5.6 21.9
12:45 1007 29.74 836 24.69 7.9 46.3 38 -5.6 22
12:50 1006 29.71 836 24.69 7.5 45.4 41 -5 23
12:55 1006 29.71 836 24.69 7.6 45.7 40 -5 23.1
13:00 1006 29.71 836 24.69 7.2 45 41 -5.2 22.6
13:05 1006 29.71 835 24.66 7.9 46.1 39 -5.4 22.3
13:10 1006 29.71 835 24.66 7.4 45.3 41 -5 23
13:15 1006 29.71 835 24.66 7.9 46.2 39 -5.2 22.7
13:20 1006 29.71 835 24.66 7.3 45.1 40 -5.4 22.3
13:25 1006 29.71 835 24.66 7.5 45.5 39 -5.6 22
13:30 1006 29.71 835 24.66 7.5 45.4 40 -5.3 22.5
13:35 1006 29.71 835 24.66 7.3 45.2 40 -5.4 22.3
13:40 1006 29.71 835 24.66 7.6 45.6 39 -5.5 22.1
13:45 1006 29.71 835 24.66 7.8 46.1 41 -4.7 23.6
13:50 1006 29.71 835 24.66 7.3 45.2 42 -4.6 23.6
13:55 1006 29.71 835 24.66 7.3 45.2 43 -4.4 24.1
14:00 1006 29.71 835 24.66 7.5 45.6 42 -4.6 23.7
14:05 1006 29.71 835 24.66 7.8 46.1 40 -4.8 23.4
14:10 1006 29.71 835 24.66 7.9 46.2 40 -4.9 23.3
14:15 1006 29.71 835 24.66 7.9 46.1 41 -4.7 23.5
14:20 1006 29.71 835 24.66 7.9 46.3 40 -4.8 23.3
14:25 1006 29.71 835 24.66 8 46.3 41 -4.6 23.7
14:30 1006 29.71 835 24.66 7.8 46 42 -4.4 24.2
14:35 1006 29.71 835 24.66 7.5 45.5 41 -4.9 23.2
14:40 1006 29.71 835 24.66 7.5 45.5 41 -4.9 23.1
14:45 1006 29.71 835 24.66 6.5 43.8 44 -4.7 23.5
14:50 1006 29.71 835 24.66 6.1 43 45 -5.1 22.9
14:55 1006 29.71 835 24.66 6.1 43 46 -4.6 23.7
15:00 1006 29.71 835 24.66 6.2 43.2 44 -5.1 22.9
15:05 1006 29.71 835 24.66 6.3 43.4 44 -5 23.1
15:10 1006 29.71 835 24.66 6.1 43 44 -5.2 22.6
15:15 1006 29.71 835 24.66 6 42.7 47 -4.4 24.1
15:20 1006 29.71 835 24.66 5.7 42.2 47 -4.9 23.2
15:25 1006 29.71 835 24.66 6.6 43.8 42 -5.3 22.5
15:30 1006 29.71 835 24.66 7.3 45.1 42 -4.8 23.3
15:35 1006 29.71 835 24.66 7.7 45.9 40 -5 23.1
15:40 1006 29.71 835 24.66 7.5 45.4 42 -4.7 23.5
15:45 1006 29.71 835 24.66 7.5 45.5 41 -5 22.9
15:50 1006 29.71 835 24.66 6.9 44.4 44 -4.6 23.7
15:55 1005 29.68 835 24.66 6.3 43.3 44 -5.2 22.6
16:00 1005 29.68 835 24.66 6.8 44.3 43 -4.8 23.3
16:05 1005 29.68 835 24.66 6.7 44 42 -5.2 22.6
16:10 1005 29.68 835 24.66 7 44.5 43 -4.8 23.3
16:15 1005 29.68 835 24.66 7.3 45.1 42 -4.9 23.1
16:20 1005 29.68 835 24.66 7.1 44.8 43 -4.6 23.7
16:25 1005 29.68 834 24.63 7.1 44.7 44 -4.5 24
16:30 1005 29.68 834 24.63 6.6 43.8 45 -4.6 23.7
16:35 1005 29.68 834 24.63 6.3 43.4 44 -4.9 23.1
16:40 1005 29.68 834 24.63 6.4 43.5 44 -5 22.9
16:45 1005 29.68 834 24.63 6.4 43.6 44 -4.8 23.4
16:50 1005 29.68 834 24.63 6.3 43.4 45 -4.9 23.2
16:55 1005 29.68 834 24.63 6.1 43 46 -4.6 23.6
17:00 1005 29.68 834 24.63 5.4 41.7 49 -4.6 23.7
17:05 1005 29.68 834 24.63 5 40.9 49 -4.7 23.5
17:10 1005 29.68 834 24.63 4.5 40.1 52 -4.5 23.8
17:15 1005 29.68 834 24.63 4 39.2 53 -4.8 23.3
17:20 1005 29.68 834 24.63 3.4 38 57 -4.4 24
17:25 1005 29.68 834 24.63 2.7 36.9 57 -5 22.9
17:30 1005 29.68 834 24.63 3.1 37.6 54 -5.3 22.4
17:35 1005 29.68 834 24.63 3 37.4 56 -4.8 23.3
17:40 1005 29.68 834 24.63 2.5 36.5 58 -5 23
17:45 1005 29.68 834 24.63 2 35.6 59 -5.2 22.6
17:50 1005 29.68 834 24.63 1.8 35.3 60 -5.2 22.6
17:55 1005 29.68 835 24.66 1.7 35.1 58 -5.6 22
18:00 1005 29.68 835 24.66 2.3 36.1 58 -5.1 22.8
18:05 1006 29.71 835 24.66 2.5 36.5 58 -5 22.9
18:10 1006 29.71 835 24.66 2 35.5 62 -4.5 23.9
18:15 1006 29.71 835 24.66 1.3 34.4 63 -4.9 23.1
18:20 1006 29.71 835 24.66 1.1 33.9 63 -5.3 22.5
18:25 1006 29.71 835 24.66 1.4 34.6 61 -5.3 22.4
18:30 1006 29.71 835 24.66 1.7 35.1 61 -5.1 22.8
18:35 1006 29.71 835 24.66 1.4 34.5 62 -5.2 22.7
18:40 1006 29.71 835 24.66 1.6 34.9 60 -5.4 22.3
18:45 1005 29.68 835 24.66 2.2 35.9 58 -5.2 22.7
18:50 1006 29.71 835 24.66 1.9 35.5 61 -4.9 23.3
18:55 1006 29.71 835 24.66 1 33.9 63 -5.2 22.7
19:00 1006 29.71 835 24.66 1 33.9 62 -5.4 22.3
19:05 1005 29.68 835 24.66 1.2 34.1 61 -5.5 22.1
19:10 1005 29.68 835 24.66 1.1 33.9 61 -5.5 22
19:15 1005 29.68 835 24.66 1.3 34.3 60 -5.7 21.8
19:20 1005 29.68 834 24.63 1.3 34.4 60 -5.5 22.1
19:25 1005 29.68 834 24.63 1.4 34.5 59 -5.8 21.6
19:30 1005 29.68 834 24.63 1.2 34.2 60 -5.8 21.6
19:35 1005 29.68 834 24.63 0.9 33.6 60 -6.1 21
19:40 1005 29.68 834 24.63 0.4 32.8 61 -6.1 21
19:45 1005 29.68 834 24.63 0.5 33 61 -6 21.1
19:50 1005 29.68 834 24.63 0.4 32.7 61 -6.3 20.7
19:55 1005 29.68 834 24.63 0.7 33.3 61 -6 21.2
20:00 1005 29.68 834 24.63 0.6 33 60 -6.3 20.6
20:05 1005 29.68 834 24.63 0.6 33.1 60 -6.3 20.6
20:10 1005 29.68 834 24.63 0.7 33.3 59 -6.4 20.5
20:15 1005 29.68 834 24.63 0.8 33.4 59 -6.3 20.7
20:20 1005 29.68 834 24.63 0.6 33 60 -6.3 20.6
20:25 1005 29.68 834 24.63 0.5 32.9 60 -6.3 20.6
20:30 1005 29.68 834 24.63 0.4 32.8 60 -6.5 20.3
20:35 1005 29.68 834 24.63 0.6 33.1 59 -6.4 20.5
20:40 1005 29.68 834 24.63 0.5 32.9 59 -6.7 20
20:45 1005 29.68 834 24.63 0.6 33 58 -6.7 19.9
20:50 1005 29.68 834 24.63 0.3 32.6 60 -6.5 20.2
20:55 1005 29.68 834 24.63 0.1 32.1 61 -6.6 20.2
21:00 1005 29.68 834 24.63 0.4 32.7 58 -6.9 19.5
21:05 1005 29.68 834 24.63 0.8 33.5 57 -6.8 19.7
21:10 1005 29.68 834 24.63 1.6 34.8 55 -6.6 20.1
21:15 1005 29.68 834 24.63 1.4 34.5 55 -6.6 20.1
21:20 1005 29.68 834 24.63 1.1 34 57 -6.4 20.4
21:25 1005 29.68 834 24.63 0.9 33.6 58 -6.4 20.5
21:30 1005 29.68 834 24.63 0.7 33.3 57 -6.8 19.7
21:35 1005 29.68 834 24.63 0.5 32.9 59 -6.6 20.1
21:40 1005 29.68 834 24.63 0.8 33.4 59 -6.4 20.4
21:45 1005 29.68 834 24.63 0.1 32.2 61 -6.6 20.1
21:50 1005 29.68 834 24.63 0 32 61 -6.7 20
21:55 1005 29.68 834 24.63 0 32.1 60 -6.8 19.8
22:00 1005 29.68 834 24.63 0.3 32.5 59 -6.8 19.7
22:05 1005 29.68 834 24.63 0.5 32.9 58 -6.7 19.9
22:10 1005 29.68 834 24.63 0.4 32.7 59 -6.7 19.9
22:15 1005 29.68 834 24.63 0.3 32.6 59 -6.8 19.8
22:20 1005 29.68 834 24.63 0.4 32.8 59 -6.7 20
22:25 1005 29.68 834 24.63 0.1 32.3 60 -6.8 19.7
22:30 1004 29.65 834 24.63 -0.3 31.5 62 -6.6 20.1
22:35 1004 29.65 834 24.63 -0.7 30.7 63 -6.9 19.6
22:40 1004 29.65 833 24.6 -0.5 31.1 62 -6.8 19.7
22:45 1004 29.65 833 24.6 -0.5 31.1 63 -6.7 19.9
22:50 1004 29.65 833 24.6 -0.4 31.3 62 -6.7 19.9
22:55 1004 29.65 833 24.6 -0.5 31 63 -6.8 19.7
23:00 1004 29.65 833 24.6 -0.7 30.8 63 -6.8 19.7
23:05 1004 29.65 833 24.6 -0.7 30.7 63 -6.9 19.6
23:10 1004 29.65 833 24.6 -0.7 30.8 63 -6.9 19.6
23:15 1004 29.65 833 24.6 -0.4 31.2 62 -6.9 19.6
23:20 1004 29.65 833 24.6 -0.4 31.3 62 -6.9 19.6
23:25 1004 29.65 833 24.6 -0.6 30.8 62 -7.1 19.2
23:30 1004 29.65 833 24.6 -0.6 30.9 62 -7.1 19.2
23:35 1004 29.65 833 24.6 -0.7 30.8 62 -7 19.4
23:40 1004 29.65 833 24.6 -0.6 30.9 62 -6.9 19.5
23:45 1004 29.65 833 24.6 -0.5 31.1 62 -7 19.4
23:50 1004 29.65 833 24.6 -0.3 31.5 61 -7 19.5
23:55 1003 29.62 833 24.6 -0.1 31.7 60 -7.1 19.2
24:00 1003 29.62 833 24.6 -0.2 31.6 60 -7 19.4